• Join FlightAware (Why Join?)
  • Login
  • US Flag 
04:15PM EST


 

Airport Tracker/Info


-or-


 

Live Flight TrackerFlight Track Log ✈ ASQ5107 ✈ 20-May-2013 ✈ KAGS - KATL

Flight Track Log - Related Links

Times and Time Zones

All times are in EDT time to prevent confusion due to time zone crossing. See the ASQ5107 flight status page for this flight to view local times or setup timezone preferences in your user account.

Time Position Orientation Groundspeed Altitude Reporting Facility
EDT Latitude Longitude Course Direction KTS MPH feet Rate Location/Type
07:28PM 33.4108 -82.0531 259° West 239 275 3,000  Level Atlanta Center
07:29PM 33.3956 -82.1478 259° West 285 328 6,200 2,460 Climbing Atlanta Center
07:31PM 33.3669 -82.3325 260° West 280 322 10,400 2,460 Climbing Atlanta Center
07:32PM 33.3517 -82.4397 260° West 307 353 13,600 2,700 Climbing Atlanta Center
07:33PM 33.3364 -82.5419 260° West 320 368 15,900 2,040 Climbing Atlanta Center
07:34PM 33.3061 -82.6319 248° West 320 368 17,700 1,680 Climbing Atlanta Center
07:35PM 33.2717 -82.7344 248° West 328 377 19,300 1,140 Climbing Atlanta Center
07:36PM 33.2522 -82.8589 259° West 339 390 20,000 300 Climbing Atlanta Center
07:37PM 33.2489 -82.9708 268° West 339 390 20,000  Level Atlanta Center
07:38PM 33.2436 -83.0850 267° West 345 397 20,000  Level Atlanta Center
07:39PM 33.2403 -83.1969 268° West 345 397 20,000  Level Atlanta Center
07:40PM 33.2347 -83.3136 267° West 345 397 20,000 -240 Level Atlanta Center
07:41PM 33.2333 -83.4131 269° West 345 397 19,600 -1,200 Descending Atlanta Center
07:42PM 33.2297 -83.5247 268° West 343 395 17,700 -1,980 Descending Atlanta Center
07:43PM 33.2258 -83.6317 268° West 332 382 15,700 -2,220 Descending Atlanta Center
07:43PM 33.2167 -83.7000 261° West 315 362 14,400 -2,220 Descending Atlanta TRACON
07:44PM 33.2167 -83.7833 270° West 309 356 12,600 -1,740 Descending Atlanta TRACON
07:45PM 33.2500 -83.8667 296° West 287 330 11,100 -1,440 Descending Atlanta TRACON
07:46PM 33.2767 -83.9219 300° West 286 329 10,400 -1,140 Descending Atlanta Center
07:47PM 33.3078 -84.0039 294° West 291 335 9,300 -1,080 Descending Atlanta Center
07:48PM 33.3497 -84.0611 311° West 237 273 8,300 -1,200 Descending Atlanta Center
07:49PM 33.4122 -84.0314 22° Northeast 193 222 6,900 -1,440 Descending Atlanta Center
07:50PM 33.4708 -84.0014 23° Northeast 212 244 5,500 -1,500 Descending Atlanta Center
07:51PM 33.5311 -83.9764 19° North 227 261 4,000 -780 Descending Atlanta Center
07:52PM 33.5856 -84.0164 329° Northwest 207 238 4,000  Level Atlanta Center
07:54PM 33.6167 -84.1667 284° West 189 217 4,000 -60 Level Atlanta TRACON
07:55PM 33.6167 -84.2333 270° West 195 224 3,900 -600 Descending Atlanta TRACON
07:56PM 33.6167 -84.3000 270° West 192 221 2,900 -960 Descending Atlanta TRACON
07:57PM 33.6167 -84.3500 270° West 170 196 2,000 -840 Descending Atlanta TRACON
07:58PM 33.6167 -84.4167 270° West 143 165 1,200 -780 Descending Atlanta TRACON
08:00PM 33.6333 -84.4167 286° West  Level FlightAware Approximate
08:07PM 33.6367 -84.4279 286° West  Level Estimated